METAR Data
IDs: Format: Raw Decoded Include TAF

Data at: 0629 UTC 24 Sep 2018

KFFA 240605Z AUTO 00000KT 5SM BR CLR 22/22 A3013 RMK AO2 T02220222
KFFA 240545Z AUTO 00000KT 5SM BR CLR 22/22 A3014 RMK AO2 T02220222
KFFA 240525Z AUTO 00000KT 5SM BR CLR 22/22 A3014 RMK AO2 T02220222
KFFA 240505Z AUTO 00000KT 5SM BR CLR 23/22 A3013 RMK AO2 T02250224
KFFA 240445Z AUTO 00000KT 7SM CLR 23/23 A3013 RMK AO2 T02250225
KFFA 240425Z AUTO 00000KT 7SM CLR 23/23 A3014 RMK AO2 T02250225
KFFA 240405Z AUTO 00000KT 7SM CLR 23/23 A3014 RMK AO2 T02270226
KFFA 240345Z AUTO 00000KT 7SM CLR 23/23 A3014 RMK AO2 T02260225
KFFA 240325Z AUTO 00000KT 7SM CLR 23/22 A3014 RMK AO2 T02260223
KFFA 240305Z AUTO 00000KT 7SM CLR 23/22 A3014 RMK AO2 T02280222
KFFA 240245Z AUTO 00000KT 10SM CLR 23/22 A3013 RMK AO2 T02300223
KFFA 240225Z AUTO 00000KT 10SM CLR 23/22 A3013 RMK AO2 T02310223
KFFA 240205Z AUTO 00000KT 10SM CLR 23/22 A3013 RMK AO2 T02340224
KFFA 240145Z AUTO 00000KT 10SM SCT085 24/22 A3013 RMK AO2 T02350224
KFFA 240125Z AUTO 00000KT 10SM BKN085 24/22 A3012 RMK AO2 T02370224
KFFA 240105Z AUTO 00000KT 10SM OVC085 24/22 A3012 RMK AO2 T02370224
KFFA 240045Z AUTO 00000KT 10SM OVC085 24/22 A3012 RMK AO2 T02360222
KFFA 240025Z AUTO 00000KT 10SM OVC085 24/22 A3011 RMK AO2 T02350222
KFFA 240005Z AUTO 00000KT 10SM BKN085 24/22 A3010 RMK AO2 T02350222
KFFA 232345Z AUTO 00000KT 10SM BKN085 24/22 A3009 RMK AO2 T02350220
KFFA 232325Z AUTO 00000KT 10SM BKN085 24/22 A3009 RMK AO2 T02360218
KFFA 232305Z AUTO 00000KT 10SM BKN085 24/22 A3009 RMK AO2 T02370215
KFFA 232245Z AUTO 00000KT 10SM SCT085 24/21 A3009 RMK AO2 T02390213
KFFA 232225Z AUTO 00000KT 10SM CLR 24/21 A3008 RMK AO2 T02420211
KFFA 232205Z AUTO 10003KT 10SM CLR 25/21 A3008 RMK AO2 T02480210
KFFA 232145Z AUTO 11004KT 10SM CLR 25/21 A3008 RMK AO2 T02500210
KFFA 232125Z AUTO 00000KT 10SM CLR 25/21 A3008 RMK AO2 T02540211
KFFA 232105Z AUTO 11003KT 10SM CLR 26/21 A3007 RMK AO2 T02570211
KFFA 232045Z AUTO 12003KT 10SM CLR 26/21 A3007 RMK AO2 T02590210
KFFA 232025Z AUTO 11004KT 10SM CLR 26/21 A3007 RMK AO2 T02610209
KFFA 232005Z AUTO 00000KT 10SM CLR 26/21 A3007 RMK AO2 T02610209
KFFA 231945Z AUTO 08004KT 10SM CLR 26/21 A3007 RMK AO2 T02600209
KFFA 231925Z AUTO 10003KT 10SM SCT080 26/21 A3008 RMK AO2 T02590208
KFFA 231905Z AUTO 11003KT 10SM BKN080 26/20 A3008 RMK AO2 T02560204
KFFA 231845Z AUTO 08003KT 10SM CLR 26/20 A3009 RMK AO2 T02560201
KFFA 231825Z AUTO 07006KT 10SM SCT090 25/20 A3009 RMK AO2 T02530200
KFFA 231805Z AUTO 07004KT 10SM SCT070 BKN090 25/20 A3010 RMK AO2 T02510202
KFFA 231745Z AUTO 06006KT 10SM BKN070 OVC090 25/21 A3011 RMK AO2 T02520205
KFFA 231725Z AUTO 08004KT 10SM BKN070 BKN090 25/21 A3011 RMK AO2 T02520205
KFFA 231705Z AUTO 07003KT 10SM BKN070 OVC090 25/21 A3012 RMK AO2 T02480205
KFFA 231645Z AUTO 08006KT 10SM OVC090 25/21 A3012 RMK AO2 T02470206
KFFA 231625Z AUTO 07004KT 10SM OVC090 25/21 A3012 RMK AO2 T02510208
KFFA 231605Z AUTO 00000KT 10SM SCT039 SCT070 OVC090 25/21 A3012 RMK AO2 T02490206
KFFA 231545Z AUTO 09005KT 10SM SCT039 SCT060 OVC070 25/21 A3012 RMK AO2 T02500206
KFFA 231525Z AUTO 08005KT 10SM OVC060 25/20 A3012 RMK AO2 T02460203
KFFA 231505Z AUTO 08005KT 10SM SCT039 SCT046 OVC050 23/20 A3012 RMK AO2 T02340198
KFFA 231445Z AUTO 08003KT 10SM BKN039 OVC045 23/20 A3012 RMK AO2 T02280197
KFFA 231425Z AUTO 09004KT 10SM BKN048 OVC050 22/20 A3012 RMK AO2 T02220203
KFFA 231405Z AUTO 12005KT 10SM BKN060 OVC070 22/21 A3013 RMK AO2 T02210212
KFFA 231345Z AUTO 11004KT 10SM BKN060 OVC070 22/22 A3012 RMK AO2 T02220218
KFFA 231325Z AUTO 13004KT 5SM BR SCT039 BKN060 OVC070 22/22 A3012 RMK AO2 T02230221
KFFA 231305Z AUTO 00000KT 7SM SCT037 BKN044 OVC050 22/22 A3013 RMK AO2 T02190219
KFFA 231245Z AUTO 00000KT 7SM SCT025 BKN037 OVC060 22/21 A3012 RMK AO2 T02150213
KFFA 231225Z AUTO 00000KT 3SM RA SCT010 BKN022 OVC060 22/22 A3011 RMK AO2 T02190215
KFFA 231205Z AUTO 00000KT 7SM RA BKN010 BKN018 OVC070 23/23 A3011 RMK AO2 T02300226
KFFA 231145Z AUTO 00000KT 10SM BKN010 BKN070 OVC080 23/23 A3010 RMK AO2 T02310228
KFFA 231125Z AUTO 00000KT 7SM SCT008 OVC080 23/23 A3009 RMK AO2 T02280226
KFFA 231105Z AUTO 00000KT 7SM SCT090 23/22 A3009 RMK AO2 T02250224
KFFA 231045Z AUTO 00000KT 7SM CLR 23/22 A3009 RMK AO2 T02250223
KFFA 231025Z AUTO 00000KT 10SM SCT012 23/23 A3009 RMK AO2 T02250225
KFFA 231005Z AUTO 00000KT 7SM SCT012 22/22 A3009 RMK AO2 T02230223
KFFA 230945Z AUTO 00000KT 7SM BKN012 22/22 A3008 RMK AO2 T02200220
KFFA 230925Z AUTO 00000KT 7SM SCT010 22/22 A3009 RMK AO2 T02190219
KFFA 230905Z AUTO 00000KT 7SM SCT012 22/22 A3008 RMK AO2 T02160216
KFFA 230845Z AUTO 00000KT 7SM SCT012 22/22 A3008 RMK AO2 T02190217
KFFA 230825Z AUTO 00000KT 7SM BKN010 22/22 A3008 RMK AO2 T02180216
KFFA 230805Z AUTO 00000KT 5SM BR SCT010 22/22 A3008 RMK AO2 T02180215
KFFA 230745Z AUTO 00000KT 7SM SCT010 22/21 A3009 RMK AO2 T02180214
KFFA 230725Z AUTO 00000KT 7SM CLR 22/21 A3008 RMK AO2 T02200214
KFFA 230705Z AUTO 00000KT 7SM CLR 22/21 A3008 RMK AO2 T02200213
KFFA 230645Z AUTO 00000KT 7SM CLR 22/21 A3008 RMK AO2 T02200212
KFFA 230625Z AUTO 00000KT 10SM CLR 22/21 A3009 RMK AO2 T02230212
KFFA 230605Z AUTO 00000KT 10SM CLR 22/21 A3009 RMK AO2 T02240212
KFFA 230545Z AUTO 00000KT 10SM CLR 22/21 A3009 RMK AO2 T02230210
KFFA 230525Z AUTO 00000KT 10SM CLR 22/21 A3010 RMK AO2 T02240209
KFFA 230505Z AUTO 00000KT 10SM CLR 22/21 A3010 RMK AO2 T02230208
KFFA 230445Z AUTO 00000KT 10SM CLR 22/21 A3010 RMK AO2 T02230207
KFFA 230425Z AUTO 00000KT 10SM CLR 22/21 A3010 RMK AO2 T02220206
KFFA 230405Z AUTO 00000KT 10SM CLR 22/21 A3010 RMK AO2 T02230205
KFFA 230345Z AUTO 00000KT 10SM CLR 23/20 A3011 RMK AO2 T02250204
KFFA 230325Z AUTO 00000KT 10SM CLR 23/20 A3011 RMK AO2 T02270201
KFFA 230305Z AUTO 00000KT 10SM CLR 23/20 A3010 RMK AO2 T02280197
KFFA 230245Z AUTO 00000KT 10SM CLR 23/20 A3010 RMK AO2 T02300196
KFFA 230225Z AUTO 00000KT 10SM CLR 23/20 A3011 RMK AO2 T02300195
KFFA 230205Z AUTO 00000KT 10SM CLR 23/19 A3010 RMK AO2 T02300193
KFFA 230145Z AUTO 00000KT 10SM CLR 23/19 A3010 RMK AO2 T02320193
KFFA 230125Z AUTO 00000KT 10SM CLR 23/19 A3009 RMK AO2 T02320194
KFFA 230105Z AUTO 00000KT 10SM CLR 24/20 A3010 RMK AO2 T02350195
KFFA 230045Z AUTO 00000KT 10SM CLR 24/20 A3009 RMK AO2 T02370197
KFFA 230025Z AUTO 00000KT 10SM CLR 24/20 A3008 RMK AO2 T02380198
KFFA 230005Z AUTO 00000KT 10SM CLR 24/20 A3007 RMK AO2 T02390200
KFFA 222345Z AUTO 00000KT 10SM CLR 24/20 A3007 RMK AO2 T02410200
KFFA 222325Z AUTO 00000KT 10SM CLR 24/20 A3007 RMK AO2 T02430200
KFFA 222305Z AUTO 00000KT 10SM CLR 25/20 A3007 RMK AO2 T02460200
KFFA 222245Z AUTO 00000KT 10SM CLR 25/20 A3007 RMK AO2 T02510200
KFFA 222225Z AUTO 00000KT 10SM CLR 26/20 A3007 RMK AO2 T02570199
KFFA 222205Z AUTO 00000KT 10SM CLR 26/20 A3007 RMK AO2 T02610201
KFFA 222145Z AUTO 00000KT 10SM CLR 26/20 A3006 RMK AO2 T02640202
KFFA 222125Z AUTO 13004KT 10SM CLR 27/21 A3006 RMK AO2 T02670205
KFFA 222105Z AUTO 00000KT 10SM CLR 27/21 A3006 RMK AO2 T02700206
KFFA 222045Z AUTO 12004KT 10SM CLR 27/21 A3005 RMK AO2 T02730206
KFFA 222025Z AUTO 00000KT 10SM CLR 28/21 A3005 RMK AO2 T02750205
KFFA 222005Z AUTO 12003KT 10SM CLR 28/20 A3005 RMK AO2 T02770204
KFFA 221945Z AUTO 12004KT 10SM CLR 28/20 A3005 RMK AO2 T02790203
KFFA 221925Z AUTO 12004KT 10SM CLR 28/20 A3005 RMK AO2 T02810204
KFFA 221905Z AUTO 12004KT 10SM CLR 28/20 A3005 RMK AO2 T02820203
KFFA 221845Z AUTO 12006KT 10SM CLR 28/20 A3005 RMK AO2 T02840201